Time;durP1;ratioP1;P1;durP2;ratioP2;P2;SDS_P1;SDS_P2;PMS_P1;PMS_P2;Temp;Humidity;BMP_temperature;BMP_pressure;BME280_temperature;BME280_humidity;BME280_pressure;Samples;Min_cycle;Max_cycle;Signal;HPM_P1;HPM_P2
2022/12/07 00:01:05;;;;;;;1999.90;999.90;;;;;;;3.88;100.00;94872.28;5136977;27;20199;-60
2022/12/07 00:03:31;;;;;;;1999.90;999.90;;;;;;;3.88;100.00;94878.47;5136944;27;20195;-60
2022/12/07 00:06:00;;;;;;;1999.90;999.90;;;;;;;3.84;100.00;94871.47;5136616;27;20228;-60
2022/12/07 00:08:26;;;;;;;1999.90;999.90;;;;;;;3.81;100.00;94869.53;5136352;27;20194;-60
2022/12/07 00:10:52;;;;;;;1999.90;999.90;;;;;;;3.80;100.00;94870.69;5136211;27;20175;-60
2022/12/07 00:13:17;;;;;;;1999.90;999.90;;;;;;;3.82;100.00;94879.19;5137029;27;20256;-66
2022/12/07 00:15:43;;;;;;;1999.90;999.90;;;;;;;3.85;100.00;94867.66;5136729;27;20524;-66
2022/12/07 00:18:08;;;;;;;1999.90;999.90;;;;;;;3.87;100.00;94868.03;5136606;27;20175;-67
2022/12/07 00:20:33;;;;;;;1999.90;999.90;;;;;;;3.88;100.00;94866.88;5136813;27;20170;-66
2022/12/07 00:22:59;;;;;;;1999.90;999.90;;;;;;;3.92;100.00;94867.69;5136991;27;20215;-67
2022/12/07 00:25:24;;;;;;;1999.90;999.90;;;;;;;3.97;100.00;94864.66;5136601;27;20197;-68
2022/12/07 00:27:50;;;;;;;1999.90;999.90;;;;;;;3.92;100.00;94867.69;5136440;27;20258;-67
2022/12/07 00:30:15;;;;;;;1999.90;999.90;;;;;;;3.93;100.00;94863.84;5136253;27;20224;-72
2022/12/07 00:32:40;;;;;;;1999.90;999.90;;;;;;;3.93;100.00;94875.41;5135958;27;20190;-65
2022/12/07 00:35:06;;;;;;;1999.90;999.90;;;;;;;3.91;100.00;94885.03;5136024;27;20186;-65
2022/12/07 00:37:31;;;;;;;1999.90;999.90;;;;;;;3.92;100.00;94878.50;5136062;27;20175;-65
2022/12/07 00:39:57;;;;;;;1999.90;999.90;;;;;;;3.91;100.00;94877.72;5135971;27;20179;-65
2022/12/07 00:42:22;;;;;;;1999.90;999.90;;;;;;;3.92;100.00;94881.97;5135910;27;20199;-65
2022/12/07 00:44:47;;;;;;;1999.90;999.90;;;;;;;3.94;100.00;94887.00;5135604;27;20268;-66
2022/12/07 00:47:13;;;;;;;1999.90;999.90;;;;;;;3.91;100.00;94887.75;5135851;27;20185;-65
2022/12/07 00:49:38;;;;;;;1999.90;999.90;;;;;;;3.88;100.00;94891.19;5136191;27;20187;-65
2022/12/07 00:52:03;;;;;;;1999.90;999.90;;;;;;;3.88;100.00;94893.88;5136354;27;20171;-61
2022/12/07 00:54:29;;;;;;;1999.90;999.90;;;;;;;3.86;100.00;94890.78;5135680;27;20179;-61
2022/12/07 00:56:54;;;;;;;1999.90;999.90;;;;;;;3.79;100.00;94898.84;5135776;27;20278;-61
2022/12/07 00:59:19;;;;;;;1999.90;999.90;;;;;;;3.76;100.00;94904.97;5135695;27;20199;-61
2022/12/07 01:01:45;;;;;;;1999.90;999.90;;;;;;;3.74;100.00;94899.16;5135310;27;20213;-61
2022/12/07 01:04:10;;;;;;;1999.90;999.90;;;;;;;3.74;100.00;94907.25;5135448;27;20207;-61
2022/12/07 01:06:36;;;;;;;1999.90;999.90;;;;;;;3.70;100.00;94903.75;5135321;27;20175;-63
2022/12/07 01:09:03;;;;;;;1999.90;999.90;;;;;;;3.68;100.00;94906.06;5135244;27;20189;-63
2022/12/07 01:11:29;;;;;;;1999.90;999.90;;;;;;;3.71;100.00;94894.53;5135469;27;20193;-63
2022/12/07 01:13:57;;;;;;;1999.90;999.90;;;;;;;3.69;100.00;94902.19;5135267;27;20175;-63
2022/12/07 01:16:25;;;;;;;1999.90;999.90;;;;;;;3.62;100.00;94902.13;5135328;27;20179;-63
2022/12/07 01:18:52;;;;;;;1999.90;999.90;;;;;;;3.64;100.00;94899.84;5135769;27;20177;-62
2022/12/07 01:21:21;;;;;;;1999.90;999.90;;;;;;;3.61;100.00;94908.69;5135264;27;20186;-63
2022/12/07 01:23:47;;;;;;;1999.90;999.90;;;;;;;3.58;100.00;94913.66;5135063;27;20227;-64
2022/12/07 01:26:16;;;;;;;1999.90;999.90;;;;;;;3.56;100.00;94903.63;5135368;27;20630;-63
2022/12/07 01:28:42;;;;;;;1999.90;999.90;;;;;;;3.58;100.00;94898.63;5135607;27;20175;-60
2022/12/07 01:31:14;;;;;;;1999.90;999.90;;;;;;;3.62;100.00;94896.72;5135749;27;20171;-60
2022/12/07 01:33:42;;;;;;;1999.90;999.90;;;;;;;3.62;100.00;94907.53;5135595;27;20175;-60
2022/12/07 01:36:29;;;;;;;1999.90;999.90;;;;;;;3.63;100.00;94917.16;5134950;27;20171;-60
2022/12/07 01:38:58;;;;;;;1999.90;999.90;;;;;;;3.58;100.00;94919.06;5135312;27;20262;-61
2022/12/07 01:41:29;;;;;;;1999.90;999.90;;;;;;;3.52;100.00;94914.38;5134905;27;20265;-60
2022/12/07 01:44:07;;;;;;;1999.90;999.90;;;;;;;3.54;100.00;94912.84;5135582;27;20226;-67
2022/12/07 01:46:32;;;;;;;1999.90;999.90;;;;;;;3.53;100.00;94911.31;5134939;27;20178;-63
2022/12/07 01:48:59;;;;;;;1999.90;999.90;;;;;;;3.55;100.00;94902.84;5134738;27;20171;-62
2022/12/07 01:51:25;;;;;;;1999.90;999.90;;;;;;;3.60;100.00;94909.84;5134895;27;20250;-62
2022/12/07 01:53:50;;;;;;;1999.90;999.90;;;;;;;3.58;100.00;94902.88;5135231;27;20172;-62
2022/12/07 01:56:23;;;;;;;1999.90;999.90;;;;;;;3.58;100.00;94899.41;5134539;27;20175;-62
2022/12/07 01:59:00;;;;;;;1999.90;999.90;;;;;;;3.58;100.00;94895.91;5135258;27;20163;-63
2022/12/07 02:01:25;;;;;;;1999.90;999.90;;;;;;;3.58;100.00;94901.31;5134477;27;20171;-66
2022/12/07 02:03:51;;;;;;;1999.90;999.90;;;;;;;3.54;100.00;94902.06;5134516;27;20271;-74
2022/12/07 02:06:20;;;;;;;1999.90;999.90;;;;;;;3.53;100.00;94898.97;5134115;27;20176;-67
2022/12/07 02:08:46;;;;;;;1999.90;999.90;;;;;;;3.56;100.00;94899.00;5134465;27;20175;-67
2022/12/07 02:11:12;;;;;;;1999.90;999.90;;;;;;;3.58;100.00;94901.31;5134857;27;20182;-67
2022/12/07 02:13:40;;;;;;;1999.90;999.90;;;;;;;3.56;100.00;94898.22;5134742;27;20175;-67
2022/12/07 02:16:12;;;;;;;1999.90;999.90;;;;;;;3.57;100.00;94889.75;5134863;27;20609;-66
2022/12/07 02:18:56;;;;;;;1999.90;999.90;;;;;;;3.58;100.00;94893.22;5134303;28;20206;-67
2022/12/07 02:21:30;;;;;;;1999.90;999.90;;;;;;;3.55;100.00;94886.66;5135343;28;20176;-64
2022/12/07 02:23:56;;;;;;;1999.90;999.90;;;;;;;3.54;100.00;94888.56;5134818;28;20194;-61
2022/12/07 02:26:55;;;;;;;1999.90;999.90;;;;;;;3.57;100.00;94883.59;5134513;28;20537;-61
2022/12/07 02:29:35;;;;;;;1999.90;999.90;;;;;;;3.56;100.00;94877.41;5135151;28;20171;-61
2022/12/07 02:32:12;;;;;;;1999.90;999.90;;;;;;;3.53;100.00;94882.78;5135006;27;20615;-61
2022/12/07 02:34:44;;;;;;;1999.90;999.90;;;;;;;3.54;100.00;94866.22;5134885;27;20163;-62
2022/12/07 02:37:22;;;;;;;1999.90;999.90;;;;;;;3.53;100.00;94876.22;5134073;28;20207;-62
2022/12/07 02:39:58;;;;;;;1999.90;999.90;;;;;;;3.58;100.00;94874.31;5134793;27;20168;-66
2022/12/07 02:42:31;;;;;;;1999.90;999.90;;;;;;;3.58;100.00;94869.72;5134297;27;20256;-66
2022/12/07 02:44:58;;;;;;;1999.90;999.90;;;;;;;3.54;100.00;94872.38;5135689;27;20170;-65
2022/12/07 02:47:24;;;;;;;1999.90;999.90;;;;;;;3.57;100.00;94862.00;5134747;27;20171;-66
2022/12/07 02:49:51;;;;;;;1999.90;999.90;;;;;;;3.57;100.00;94853.91;5134062;27;20167;-66
2022/12/07 02:52:16;;;;;;;1999.90;999.90;;;;;;;3.58;100.00;94858.13;5134678;27;20235;-66
2022/12/07 02:54:41;;;;;;;1999.90;999.90;;;;;;;3.58;100.00;94852.75;5133801;28;20211;-66
2022/12/07 02:57:32;;;;;;;1999.90;999.90;;;;;;;3.60;100.00;94850.47;5134682;27;20172;-60
2022/12/07 03:00:03;;;;;;;1999.90;999.90;;;;;;;3.58;100.00;94854.28;5134435;28;20171;-62
2022/12/07 03:02:54;;;;;;;1999.90;999.90;;;;;;;3.58;100.00;94852.75;5134787;28;20191;-63
2022/12/07 03:05:41;;;;;;;1999.90;999.90;;;;;;;3.58;100.00;94854.28;5134828;28;20195;-63
2022/12/07 03:08:25;;;;;;;1999.90;999.90;;;;;;;3.56;100.00;94850.41;5134684;27;20172;-62
2022/12/07 03:10:56;;;;;;;1999.90;999.90;;;;;;;3.56;100.00;94841.56;5134000;28;20261;-62
2022/12/07 03:13:29;;;;;;;1999.90;999.90;;;;;;;3.55;100.00;94843.47;5134666;27;20172;-62
2022/12/07 03:16:13;;;;;;;1999.90;999.90;;;;;;;3.55;100.00;94838.06;5134601;27;20231;-66
2022/12/07 03:18:48;;;;;;;1999.90;999.90;;;;;;;3.55;100.00;94838.06;5136480;27;20213;-65
2022/12/07 03:21:17;;;;;;;1999.90;999.90;;;;;;;3.54;100.00;94829.19;5137658;27;20296;-65
2022/12/07 03:23:48;;;;;;;1999.90;999.90;;;;;;;3.57;100.00;94838.47;5137530;27;20290;-65
2022/12/07 03:26:17;;;;;;;1999.90;999.90;;;;;;;3.53;100.00;94835.75;5137337;27;20167;-64
2022/12/07 03:28:50;;;;;;;1999.90;999.90;;;;;;;3.54;100.00;94831.88;5137966;27;20168;-63
2022/12/07 03:31:21;;;;;;;1999.90;999.90;;;;;;;3.57;100.00;94835.00;5138249;27;20171;-63
2022/12/07 03:34:02;;;;;;;1999.90;999.90;;;;;;;3.54;100.00;94825.72;5137857;27;20190;-60
2022/12/07 03:36:39;;;;;;;1999.90;999.90;;;;;;;3.57;100.00;94835.00;5137560;27;20186;-68
2022/12/07 03:39:18;;;;;;;1999.90;999.90;;;;;;;3.58;100.00;94827.28;5138483;27;20166;-63
2022/12/07 03:41:44;;;;;;;1999.90;999.90;;;;;;;3.62;100.00;94823.84;5136842;27;20222;-62
2022/12/07 03:44:09;;;;;;;1999.90;999.90;;;;;;;3.58;100.00;94821.91;5137548;27;20199;-62
2022/12/07 03:47:01;;;;;;;1999.90;999.90;;;;;;;3.56;100.00;94828.06;5137026;27;20228;-62
2022/12/07 03:49:30;;;;;;;1999.90;999.90;;;;;;;3.41;100.00;94817.13;5133902;27;20190;-61
2022/12/07 03:52:26;;;;;;;1999.90;999.90;;;;;;;3.45;100.00;94817.94;5136809;27;20247;-67
2022/12/07 03:55:10;;;;;;;1999.90;999.90;;;;;;;3.48;100.00;94811.81;5137300;27;20182;-63
2022/12/07 03:57:39;;;;;;;1999.90;999.90;;;;;;;3.52;100.00;94806.41;5137484;27;20262;-63
2022/12/07 04:00:07;;;;;;;1999.90;999.90;;;;;;;3.53;100.00;94800.66;5136686;27;20325;-63
2022/12/07 04:02:33;;;;;;;1999.90;999.90;;;;;;;3.54;100.00;94799.50;5136658;27;20191;-62
2022/12/07 04:04:59;;;;;;;1999.90;999.90;;;;;;;3.52;100.00;94784.84;5136380;27;20192;-62
2022/12/07 04:07:24;;;;;;;1999.90;999.90;;;;;;;3.56;100.00;94782.19;5136505;27;20204;-63
2022/12/07 04:09:50;;;;;;;1999.90;999.90;;;;;;;3.54;100.00;94783.31;5137184;27;20171;-62
2022/12/07 04:12:15;;;;;;;1999.90;999.90;;;;;;;3.57;100.00;94775.63;5136816;27;20278;-63
2022/12/07 04:14:40;;;;;;;1999.90;999.90;;;;;;;3.59;100.00;94782.19;5136514;27;20168;-63
2022/12/07 04:17:06;;;;;;;1999.90;999.90;;;;;;;3.61;100.00;94776.44;5136287;27;20198;-63
2022/12/07 04:19:33;;;;;;;1999.90;999.90;;;;;;;3.56;100.00;94774.09;5136821;27;20198;-63
2022/12/07 04:22:01;;;;;;;1999.90;999.90;;;;;;;3.58;100.00;94762.50;5136662;27;20176;-63
2022/12/07 04:24:27;;;;;;;1999.90;999.90;;;;;;;3.62;100.00;94761.78;5136947;27;20198;-63
2022/12/07 04:26:52;;;;;;;1999.90;999.90;;;;;;;3.60;100.00;94762.16;5136951;27;20176;-63
2022/12/07 04:29:18;;;;;;;1999.90;999.90;;;;;;;3.65;100.00;94761.81;5135954;27;20270;-60
2022/12/07 04:31:44;;;;;;;1999.90;999.90;;;;;;;3.65;100.00;94750.22;5136512;27;20171;-63
2022/12/07 04:34:10;;;;;;;1999.90;999.90;;;;;;;3.65;100.00;94752.94;5137331;27;20603;-63
2022/12/07 04:36:36;;;;;;;1999.90;999.90;;;;;;;3.63;100.00;94747.13;5136081;27;20171;-64
2022/12/07 04:39:02;;;;;;;1999.90;999.90;;;;;;;3.58;100.00;94742.88;5136887;27;20195;-64
2022/12/07 04:41:28;;;;;;;1999.90;999.90;;;;;;;3.60;100.00;94737.09;5135929;27;20232;-64
2022/12/07 04:43:55;;;;;;;1999.90;999.90;;;;;;;3.60;100.00;94726.31;5135929;27;20203;-64
2022/12/07 04:46:22;;;;;;;1999.90;999.90;;;;;;;3.60;100.00;94715.50;5135947;27;20175;-64
2022/12/07 04:48:48;;;;;;;1999.90;999.90;;;;;;;3.57;100.00;94705.47;5136218;27;20175;-65
2022/12/07 04:51:18;;;;;;;1999.90;999.90;;;;;;;3.54;100.00;94699.66;5135597;27;20258;-63
2022/12/07 04:53:43;;;;;;;1999.90;999.90;;;;;;;3.53;100.00;94681.91;5136513;27;20194;-63
2022/12/07 04:56:09;;;;;;;1999.90;999.90;;;;;;;3.47;100.00;94674.56;5135695;27;20217;-63
2022/12/07 04:58:34;;;;;;;1999.90;999.90;;;;;;;3.43;100.00;94671.06;5135615;27;20172;-64
2022/12/07 05:00:59;;;;;;;1999.90;999.90;;;;;;;3.37;100.00;94659.84;5135704;27;20171;-63
2022/12/07 05:03:25;;;;;;;1999.90;999.90;;;;;;;3.36;100.00;94658.28;5136069;27;20199;-64
2022/12/07 05:05:50;;;;;;;1999.90;999.90;;;;;;;3.38;100.00;94645.19;5135883;27;20284;-63
2022/12/07 05:08:15;;;;;;;1999.90;999.90;;;;;;;3.35;100.00;94639.75;5135451;27;20198;-72
2022/12/07 05:10:41;;;;;;;1999.90;999.90;;;;;;;3.34;100.00;94633.59;5136147;27;20182;-63
2022/12/07 05:13:06;;;;;;;1999.90;999.90;;;;;;;3.33;100.00;94626.69;5135406;27;20181;-63
2022/12/07 05:15:31;;;;;;;1999.90;999.90;;;;;;;3.32;100.00;94619.72;5135198;27;20183;-63
2022/12/07 05:17:57;;;;;;;1999.90;999.90;;;;;;;3.33;100.00;94612.41;5134963;27;20178;-63
2022/12/07 05:20:22;;;;;;;1999.90;999.90;;;;;;;3.30;100.00;94605.84;5135334;27;20258;-62
2022/12/07 05:22:47;;;;;;;1999.90;999.90;;;;;;;3.30;100.00;94597.75;5135091;27;20202;-63
2022/12/07 05:25:13;;;;;;;1999.90;999.90;;;;;;;3.30;100.00;94592.34;5135633;27;20178;-63
2022/12/07 05:27:38;;;;;;;1999.90;999.90;;;;;;;3.30;100.00;94584.25;5135660;27;20202;-66
2022/12/07 05:30:05;;;;;;;1999.90;999.90;;;;;;;3.30;100.00;94580.78;5135863;27;20217;-66
2022/12/07 05:32:30;;;;;;;1999.90;999.90;;;;;;;3.23;100.00;94567.25;5135077;27;20199;-66
2022/12/07 05:34:56;;;;;;;1999.90;999.90;;;;;;;3.23;100.00;94561.84;5135059;27;20182;-68
2022/12/07 05:37:21;;;;;;;1999.90;999.90;;;;;;;3.23;100.00;94553.75;5134855;27;20223;-65
2022/12/07 05:39:46;;;;;;;1999.90;999.90;;;;;;;3.24;100.00;94537.19;5134651;27;20222;-65
2022/12/07 05:42:12;;;;;;;1999.90;999.90;;;;;;;3.26;100.00;94534.91;5134075;27;20219;-64
2022/12/07 05:44:38;;;;;;;1999.90;999.90;;;;;;;3.26;100.00;94529.53;5135394;27;20274;-73
2022/12/07 05:47:04;;;;;;;1999.90;999.90;;;;;;;3.18;100.00;94527.16;5134765;27;20167;-72
2022/12/07 05:49:29;;;;;;;1999.90;999.90;;;;;;;3.18;100.00;94521.75;5134693;27;20628;-73
2022/12/07 05:51:54;;;;;;;1999.90;999.90;;;;;;;3.19;100.00;94518.69;5135526;27;20199;-73
2022/12/07 05:54:20;;;;;;;1999.90;999.90;;;;;;;3.18;100.00;94524.47;5134784;27;20225;-72
2022/12/07 05:56:45;;;;;;;1999.90;999.90;;;;;;;3.19;100.00;94526.00;5134540;27;20199;-72
2022/12/07 05:59:23;;;;;;;1999.90;999.90;;;;;;;3.15;100.00;94523.28;5134472;27;20187;-72
2022/12/07 06:01:49;;;;;;;1999.90;999.90;;;;;;;3.18;100.00;94516.38;5134243;27;20167;-61
2022/12/07 06:04:14;;;;;;;1999.90;999.90;;;;;;;3.15;100.00;94523.28;5134220;27;20268;-63
2022/12/07 06:06:40;;;;;;;1999.90;999.90;;;;;;;3.16;100.00;94513.25;5134527;27;20202;-64
2022/12/07 06:09:05;;;;;;;1999.90;999.90;;;;;;;3.14;100.00;94520.97;5134603;28;20269;-63
2022/12/07 06:14:14;;;;;;;1999.90;999.90;;;;;;;3.08;100.00;94527.88;5135983;28;20162;-62
2022/12/07 06:16:41;;;;;;;1999.90;999.90;;;;;;;3.07;100.00;94543.25;5134384;27;20179;-64
2022/12/07 06:19:06;;;;;;;1999.90;999.90;;;;;;;3.06;100.00;94541.72;5134409;27;20265;-61
2022/12/07 06:21:31;;;;;;;1999.90;999.90;;;;;;;3.11;100.00;94541.38;5134460;27;20269;-63
2022/12/07 06:23:57;;;;;;;1999.90;999.90;;;;;;;3.15;100.00;94544.88;5134308;27;20202;-60
2022/12/07 06:26:22;;;;;;;1999.90;999.90;;;;;;;3.08;100.00;94550.22;5134768;27;20174;-59
2022/12/07 06:28:48;;;;;;;1999.90;999.90;;;;;;;3.10;100.00;94550.59;5134434;27;20197;-60
2022/12/07 06:31:13;;;;;;;1999.90;999.90;;;;;;;3.13;100.00;94555.25;5134263;27;20175;-60
2022/12/07 06:33:38;;;;;;;1999.90;999.90;;;;;;;3.14;100.00;94559.47;5134093;27;20171;-60
2022/12/07 06:36:04;;;;;;;1999.90;999.90;;;;;;;3.14;100.00;94567.56;5134177;27;20174;-60
2022/12/07 06:38:29;;;;;;;1999.90;999.90;;;;;;;3.15;100.00;94573.75;5134647;27;20171;-65
2022/12/07 06:40:55;;;;;;;1999.90;999.90;;;;;;;3.07;100.00;94586.41;5133956;28;20215;-68
2022/12/07 06:43:20;;;;;;;1999.90;999.90;;;;;;;3.12;100.00;94583.38;5134104;27;20217;-66
2022/12/07 06:45:46;;;;;;;1999.90;999.90;;;;;;;3.10;100.00;94590.28;5133807;27;20202;-64
2022/12/07 06:48:11;;;;;;;1999.90;999.90;;;;;;;3.11;100.00;94600.72;5134451;28;20183;-65
2022/12/07 06:50:36;;;;;;;1999.90;999.90;;;;;;;3.11;100.00;94608.81;5133868;27;20180;-68
2022/12/07 06:53:02;;;;;;;1999.90;999.90;;;;;;;3.05;100.00;94615.69;5136658;27;20167;-67
2022/12/07 06:55:27;;;;;;;1999.90;999.90;;;;;;;3.12;100.00;94621.13;5138391;27;20175;-67
2022/12/07 06:57:52;;;;;;;1999.90;999.90;;;;;;;3.12;100.00;94631.91;5138107;27;20234;-63
2022/12/07 07:00:18;;;;;;;1999.90;999.90;;;;;;;3.13;100.00;94638.84;5138035;27;20179;-63
2022/12/07 07:02:43;;;;;;;1999.90;999.90;;;;;;;3.10;100.00;94644.97;5138206;27;20199;-63
2022/12/07 07:05:09;;;;;;;1999.90;999.90;;;;;;;3.12;100.00;94655.41;5138223;27;20227;-63
2022/12/07 07:07:34;;;;;;;1999.90;999.90;;;;;;;3.11;100.00;94657.34;5138047;27;20191;-64
2022/12/07 07:10:00;;;;;;;1999.90;999.90;;;;;;;3.16;100.00;94662.38;5138425;27;20199;-64
2022/12/07 07:12:25;;;;;;;1999.90;999.90;;;;;;;3.14;100.00;94667.34;5137675;27;20172;-66
2022/12/07 07:14:50;;;;;;;1999.90;999.90;;;;;;;3.13;100.00;94676.59;5138066;27;20175;-62
2022/12/07 07:17:16;;;;;;;1999.90;999.90;;;;;;;3.17;100.00;94682.81;5137410;27;20172;-64
2022/12/07 07:19:41;;;;;;;1999.90;999.90;;;;;;;3.17;100.00;94696.28;5137779;27;20244;-64
2022/12/07 07:22:06;;;;;;;1999.90;999.90;;;;;;;3.20;100.00;94697.47;5137478;27;20172;-64
2022/12/07 07:24:32;;;;;;;1999.90;999.90;;;;;;;3.24;100.00;94699.03;5137203;27;20228;-63
2022/12/07 07:26:57;;;;;;;1999.90;999.90;;;;;;;3.26;100.00;94702.16;5137390;27;20258;-63
2022/12/07 07:29:22;;;;;;;1999.90;999.90;;;;;;;3.28;100.00;94715.28;5136699;27;20175;-63
2022/12/07 07:31:48;;;;;;;1999.90;999.90;;;;;;;3.21;100.00;94715.97;5136974;27;20213;-63
2022/12/07 07:34:13;;;;;;;1999.90;999.90;;;;;;;3.17;100.00;94725.94;5137242;27;20273;-64
2022/12/07 07:36:39;;;;;;;1999.90;999.90;;;;;;;3.12;100.00;94730.91;5137431;27;20180;-68
2022/12/07 07:39:04;;;;;;;1999.90;999.90;;;;;;;3.10;100.00;94739.38;5137551;27;20167;-66
2022/12/07 07:41:30;;;;;;;1999.90;999.90;;;;;;;3.11;100.00;94742.84;5136989;27;20322;-69
2022/12/07 07:43:55;;;;;;;1999.90;999.90;;;;;;;3.08;100.00;94747.06;5137185;27;20244;-67
2022/12/07 07:46:21;;;;;;;1999.90;999.90;;;;;;;3.12;100.00;94749.78;5137026;27;20194;-67
2022/12/07 07:48:46;;;;;;;1999.90;999.90;;;;;;;3.14;100.00;94753.66;5137026;27;20171;-65
2022/12/07 07:51:11;;;;;;;1999.90;999.90;;;;;;;3.17;100.00;94761.00;5137723;27;20255;-68
2022/12/07 07:53:37;;;;;;;1999.90;999.90;;;;;;;3.18;100.00;94754.47;5137096;27;20179;-71
2022/12/07 07:56:03;;;;;;;1999.90;999.90;;;;;;;3.24;100.00;94768.38;5136978;27;20254;-73
2022/12/07 07:58:28;;;;;;;1999.90;999.90;;;;;;;3.20;100.00;94771.06;5136919;27;20163;-71
2022/12/07 08:00:54;;;;;;;1999.90;999.90;;;;;;;3.25;100.00;94768.03;5136768;27;20180;-73
2022/12/07 08:03:19;;;;;;;1999.90;999.90;;;;;;;3.19;100.00;94777.63;5136562;27;20195;-72
2022/12/07 08:05:45;;;;;;;1999.90;999.90;;;;;;;3.23;100.00;94785.72;5136893;27;20193;-72
2022/12/07 08:08:10;;;;;;;1999.90;999.90;;;;;;;3.25;100.00;94784.19;5136770;27;20167;-73
2022/12/07 08:10:36;;;;;;;1999.90;999.90;;;;;;;3.26;100.00;94772.28;5136685;27;20172;-62
2022/12/07 08:13:11;;;;;;;1999.90;999.90;;;;;;;3.18;100.00;94789.53;5136587;27;20636;-61
2022/12/07 08:15:38;;;;;;;1999.90;999.90;;;;;;;3.27;100.00;94791.94;5137182;27;20201;-60
2022/12/07 08:18:04;;;;;;;1999.90;999.90;;;;;;;3.25;100.00;94786.91;5136918;27;20515;-61
2022/12/07 08:20:34;;;;;;;1999.90;999.90;;;;;;;3.26;100.00;94788.47;5136270;27;20254;-61
2022/12/07 08:22:59;;;;;;;1999.90;999.90;;;;;;;3.34;100.00;94794.69;5136228;27;20295;-62
2022/12/07 08:25:25;;;;;;;1999.90;999.90;;;;;;;3.35;100.00;94807.03;5136029;27;20179;-62
2022/12/07 08:27:51;;;;;;;1999.90;999.90;;;;;;;3.39;100.00;94814.00;5135831;27;20198;-64
2022/12/07 08:30:17;;;;;;;1999.90;999.90;;;;;;;3.40;100.00;94820.19;5136359;27;20175;-62
2022/12/07 08:32:47;;;;;;;1999.90;999.90;;;;;;;3.49;100.00;94823.34;5136169;27;20171;-69
2022/12/07 08:35:13;;;;;;;1999.90;999.90;;;;;;;3.53;100.00;94829.56;5136642;27;20182;-67
2022/12/07 08:37:39;;;;;;;1999.90;999.90;;;;;;;3.58;100.00;94831.16;5136719;27;20171;-66
2022/12/07 08:40:06;;;;;;;1999.90;999.90;;;;;;;3.61;100.00;94830.41;5135423;27;20210;-67
2022/12/07 08:42:37;;;;;;;1999.90;999.90;;;;;;;3.68;100.00;94838.56;5136113;27;20191;-67
2022/12/07 08:45:08;;;;;;;1999.90;999.90;;;;;;;3.72;100.00;94842.06;5135509;27;20211;-67
2022/12/07 08:47:38;;;;;;;1999.90;999.90;;;;;;;3.78;100.00;94856.78;5136595;27;20159;-64
2022/12/07 08:50:06;;;;;;;1999.90;999.90;;;;;;;3.77;100.00;94868.72;5135803;27;20164;-69
2022/12/07 08:52:33;;;;;;;1999.90;999.90;;;;;;;3.82;100.00;94879.19;5135926;27;20171;-67
2022/12/07 08:55:00;;;;;;;1999.90;999.90;;;;;;;3.94;100.00;94887.00;5135524;27;20172;-68
2022/12/07 08:57:27;;;;;;;1999.90;999.90;;;;;;;4.00;100.00;94910.59;5135440;27;20224;-67
2022/12/07 08:59:53;;;;;;;1999.90;999.90;;;;;;;4.01;100.00;94925.66;5135319;27;20295;-67
2022/12/07 09:02:19;;;;;;;1999.90;999.90;;;;;;;4.08;100.00;94931.09;5135363;27;20183;-67
2022/12/07 09:04:44;;;;;;;1999.90;999.90;;;;;;;4.18;100.00;94935.06;5135190;27;20195;-64
2022/12/07 09:07:10;;;;;;;1999.90;999.90;;;;;;;4.12;100.00;94958.16;5136494;27;20172;-68
2022/12/07 09:09:36;;;;;;;1999.90;999.90;;;;;;;4.11;100.00;94972.81;5135237;27;20178;-65
2022/12/07 09:12:01;;;;;;;1999.90;999.90;;;;;;;4.07;100.00;94982.81;5135540;27;20179;-64
2022/12/07 09:14:26;;;;;;;1999.90;999.90;;;;;;;4.06;100.00;94989.34;5135794;27;20319;-64
2022/12/07 09:16:52;;;;;;;1999.90;999.90;;;;;;;4.17;100.00;94985.63;5135222;27;20528;-64
2022/12/07 09:19:17;;;;;;;1999.90;999.90;;;;;;;4.11;100.00;94994.44;5134945;27;20179;-64
2022/12/07 09:21:42;;;;;;;1999.90;999.90;;;;;;;4.14;100.00;94993.66;5135014;27;20179;-65
2022/12/07 09:24:09;;;;;;;1999.90;999.90;;;;;;;4.14;100.00;94993.66;5135105;27;20564;-68
2022/12/07 09:26:35;;;;;;;1999.90;999.90;;;;;;;4.13;100.00;95002.94;5134788;27;20185;-65
2022/12/07 09:29:01;;;;;;;1999.90;999.90;;;;;;;4.16;100.00;95007.59;5135606;27;20171;-65
2022/12/07 09:31:27;;;;;;;1999.90;999.90;;;;;;;4.28;100.00;95000.00;5135071;27;20239;-65
2022/12/07 09:34:00;;;;;;;1999.90;999.90;;;;;;;4.45;100.00;95006.72;5135162;27;20210;-65
2022/12/07 09:36:26;;;;;;;1999.90;999.90;;;;;;;4.55;100.00;95009.50;5135067;27;20186;-65
2022/12/07 09:38:51;;;;;;;1999.90;999.90;;;;;;;4.63;100.00;95016.50;5134940;27;20240;-65
2022/12/07 09:41:17;;;;;;;1999.90;999.90;;;;;;;4.82;100.00;95024.41;5134981;27;20219;-64
2022/12/07 09:43:45;;;;;;;1999.90;999.90;;;;;;;4.99;100.00;95028.38;5134742;27;20221;-62
2022/12/07 09:46:15;;;;;;;1999.90;999.90;;;;;;;5.13;100.00;95039.31;5135401;27;20185;-71
2022/12/07 09:48:42;;;;;;;1999.90;999.90;;;;;;;5.22;100.00;95042.44;5134856;27;20169;-72
2022/12/07 09:51:17;;;;;;;1999.90;999.90;;;;;;;5.42;100.00;95057.25;5134830;27;20193;-71
2022/12/07 09:53:44;;;;;;;1999.90;999.90;;;;;;;5.55;100.00;95072.81;5134690;27;20165;-72
2022/12/07 09:56:18;;;;;;;1999.90;999.90;;;;;;;5.61;100.00;95084.81;5134870;27;20173;-71
2022/12/07 09:58:44;;;;;;;1999.90;999.90;;;;;;;5.59;100.00;95094.47;5135055;27;20168;-73
2022/12/07 10:01:12;;;;;;;1999.90;999.90;;;;;;;5.70;100.00;95100.75;5135301;27;20248;-62
2022/12/07 10:03:40;;;;;;;1999.90;999.90;;;;;;;5.73;100.00;95116.22;5134690;27;20204;-65
2022/12/07 10:06:07;;;;;;;1999.90;999.90;;;;;;;5.82;100.00;95116.69;5135086;27;20170;-67
2022/12/07 10:08:33;;;;;;;1999.90;999.90;;;;;;;5.89;100.00;95125.66;5134541;27;20182;-67
2022/12/07 10:11:03;;;;;;;1999.90;999.90;;;;;;;5.77;100.00;95117.03;5134114;28;20222;-63
2022/12/07 10:13:36;;;;;;;1999.90;999.90;;;;;;;5.84;100.00;95133.34;5134625;27;20264;-64
2022/12/07 10:16:02;;;;;;;1999.90;999.90;;;;;;;5.87;100.00;95138.03;5134573;27;20177;-65
2022/12/07 10:18:27;;;;;;;1999.90;999.90;;;;;;;5.89;100.00;95141.91;5134902;28;20326;-65
2022/12/07 10:21:08;;;;;;;1999.90;999.90;;;;;;;6.09;100.00;95139.69;5135004;28;20176;-74
2022/12/07 10:23:35;;;;;;;1999.90;999.90;;;;;;;6.25;100.00;95148.25;5134366;28;20206;-63
2022/12/07 10:26:21;;;;;;;1999.90;999.90;;;;;;;6.46;100.00;95148.34;5134651;27;20177;-63
2022/12/07 10:28:46;;;;;;;1999.90;999.90;;;;;;;6.41;100.00;95151.44;5138307;27;20170;-64
2022/12/07 10:31:18;;;;;;;1999.90;999.90;;;;;;;6.51;100.00;95151.47;5138557;27;20259;-63
2022/12/07 10:33:55;;;;;;;1999.90;999.90;;;;;;;6.51;100.00;95153.38;5138225;27;20181;-65
2022/12/07 10:36:34;;;;;;;1999.90;999.90;;;;;;;6.46;100.00;95151.84;5139073;27;20246;-64
2022/12/07 10:39:03;;;;;;;1999.90;999.90;;;;;;;6.45;100.00;95158.41;5139074;27;20216;-62
2022/12/07 10:41:28;;;;;;;1999.90;999.90;;;;;;;6.57;100.00;95160.00;5138165;27;20232;-69
2022/12/07 10:43:56;;;;;;;1999.90;999.90;;;;;;;6.45;100.00;95157.66;5138139;27;20200;-68
2022/12/07 10:46:40;;;;;;;1999.90;999.90;;;;;;;6.48;100.00;95156.84;5138326;27;20189;-66
2022/12/07 10:49:35;;;;;;;1999.90;999.90;;;;;;;6.40;100.00;95160.72;5138806;27;20639;-68
2022/12/07 10:52:15;;;;;;;1999.90;999.90;;;;;;;6.40;100.00;95160.72;5138986;27;20158;-66
2022/12/07 10:54:56;;;;;;;1999.90;999.90;;;;;;;6.41;100.00;95156.84;5138271;27;20243;-69
2022/12/07 10:57:51;;;;;;;1999.90;999.90;;;;;;;6.20;100.00;95154.06;5138344;27;20181;-64
2022/12/07 11:00:36;;;;;;;1999.90;999.90;;;;;;;6.22;100.00;95151.72;5138134;27;20211;-65
2022/12/07 11:03:27;;;;;;;1999.90;999.90;;;;;;;6.04;100.00;95148.94;5138177;27;20208;-65